Time;durP1;ratioP1;P1;durP2;ratioP2;P2;SDS_P1;SDS_P2;PMS_P1;PMS_P2;Temp;Humidity;BMP_temperature;BMP_pressure;BME280_temperature;BME280_humidity;BME280_pressure;Samples;Min_cycle;Max_cycle;Signal;HPM_P1;HPM_P2
2022/11/09 00:01:43;;;;;;;3.72;1.55;;;14.80;79.80;;;;;;5036762;28;20037;-77
2022/11/09 00:04:09;;;;;;;3.78;1.60;;;14.70;79.70;;;;;;5036652;28;20030;-77
2022/11/09 00:06:36;;;;;;;2.38;1.60;;;14.70;79.80;;;;;;5054091;28;20040;-77
2022/11/09 00:09:04;;;;;;;4.18;1.50;;;14.70;79.90;;;;;;5053795;28;20085;-77
2022/11/09 00:11:30;;;;;;;3.92;1.50;;;14.70;79.90;;;;;;5036546;28;20057;-78
2022/11/09 00:13:55;;;;;;;3.50;1.70;;;14.70;79.90;;;;;;5036640;28;20025;-77
2022/11/09 00:16:21;;;;;;;6.93;1.92;;;14.70;80.00;;;;;;5036415;28;20443;-78
2022/11/09 00:18:49;;;;;;;4.38;1.50;;;14.70;79.90;;;;;;5053846;28;20096;-77
2022/11/09 00:21:24;;;;;;;2.83;1.60;;;14.70;79.80;;;;;;5053193;28;20033;-77
2022/11/09 00:23:50;;;;;;;3.38;1.55;;;14.70;79.90;;;;;;5036361;28;20029;-77
2022/11/09 00:26:17;;;;;;;4.18;1.40;;;14.80;79.80;;;;;;5036358;28;20112;-77
2022/11/09 00:28:43;;;;;;;4.38;1.90;;;14.80;79.80;;;;;;5053858;28;20025;-77
2022/11/09 00:31:11;;;;;;;4.20;1.90;;;14.80;79.80;;;;;;5020046;28;20056;-78
2022/11/09 00:33:37;;;;;;;3.75;1.42;;;14.70;79.80;;;;;;5036181;28;20033;-78
2022/11/09 00:36:07;;;;;;;3.30;1.65;;;14.80;79.80;;;;;;5053527;28;20037;-78
2022/11/09 00:38:34;;;;;;;4.10;1.40;;;14.70;79.90;;;;;;5036091;28;20027;-77
2022/11/09 00:41:01;;;;;;;4.15;1.73;;;14.70;80.00;;;;;;5053652;28;20432;-77
2022/11/09 00:43:27;;;;;;;3.58;1.30;;;14.70;80.10;;;;;;5053501;28;20020;-77
2022/11/09 00:45:52;;;;;;;6.07;1.75;;;14.70;80.20;;;;;;5053410;28;20041;-77
2022/11/09 00:48:18;;;;;;;4.80;1.88;;;14.80;80.30;;;;;;5053435;28;20044;-77
2022/11/09 00:50:51;;;;;;;3.83;1.90;;;14.70;80.30;;;;;;5019536;28;20034;-77
2022/11/09 00:53:18;;;;;;;3.88;1.75;;;14.70;80.50;;;;;;5035940;28;20025;-77
2022/11/09 00:56:01;;;;;;;3.58;1.70;;;14.70;80.50;;;;;;5035957;28;20033;-78
2022/11/09 00:58:29;;;;;;;2.97;1.30;;;14.80;80.70;;;;;;5019625;28;20040;-78
2022/11/09 01:00:56;;;;;;;8.80;2.00;;;14.70;80.50;;;;;;5035841;28;20022;-77
2022/11/09 01:03:23;;;;;;;5.53;1.52;;;14.80;80.60;;;;;;5053220;28;20077;-78
2022/11/09 01:05:49;;;;;;;3.58;1.77;;;14.70;80.50;;;;;;5035800;28;20064;-78
2022/11/09 01:08:14;;;;;;;3.45;1.70;;;14.80;80.50;;;;;;5053117;28;20025;-77
2022/11/09 01:10:46;;;;;;;10.25;2.05;;;14.80;80.30;;;;;;5035847;28;20037;-77
2022/11/09 01:13:14;;;;;;;3.92;1.60;;;14.80;80.30;;;;;;5035576;28;20033;-78
2022/11/09 01:15:41;;;;;;;3.22;1.55;;;14.70;80.40;;;;;;5053039;28;20036;-77
2022/11/09 01:18:07;;;;;;;3.13;1.45;;;14.70;80.60;;;;;;5053063;28;20081;-78
2022/11/09 01:20:33;;;;;;;2.30;1.40;;;14.70;80.60;;;;;;5052849;28;20052;-77
2022/11/09 01:22:58;;;;;;;4.43;1.85;;;14.60;80.50;;;;;;5053031;28;20057;-77
2022/11/09 01:25:24;;;;;;;6.22;1.80;;;14.70;80.70;;;;;;5035619;28;20037;-77
2022/11/09 01:27:49;;;;;;;5.22;2.60;;;14.60;80.60;;;;;;5052967;28;20085;-78
2022/11/09 01:30:15;;;;;;;3.47;1.40;;;14.60;81.60;;;;;;5035538;28;20041;-77
2022/11/09 01:32:40;;;;;;;3.60;1.67;;;14.60;80.80;;;;;;5053435;28;20033;-77
2022/11/09 01:35:06;;;;;;;2.85;1.70;;;14.60;81.00;;;;;;5039369;28;20037;-77
2022/11/09 01:37:32;;;;;;;3.47;1.45;;;14.50;81.00;;;;;;5039275;28;20033;-77
2022/11/09 01:39:57;;;;;;;4.68;1.80;;;14.50;81.10;;;;;;5039504;28;20034;-77
2022/11/09 01:42:24;;;;;;;4.00;1.70;;;14.50;81.10;;;;;;5039419;28;20044;-77
2022/11/09 01:45:15;;;;;;;4.35;1.75;;;14.50;81.20;;;;;;5039266;28;20022;-77
2022/11/09 01:47:42;;;;;;;2.90;1.52;;;14.40;81.30;;;;;;5056779;28;20041;-77
2022/11/09 01:50:10;;;;;;;3.47;1.35;;;14.40;81.30;;;;;;5056713;28;20092;-77
2022/11/09 01:52:41;;;;;;;4.97;1.80;;;14.40;81.40;;;;;;5039103;28;20041;-77
2022/11/09 01:55:11;;;;;;;4.70;1.73;;;14.40;81.40;;;;;;5056589;28;20032;-77
2022/11/09 01:57:46;;;;;;;2.92;1.20;;;14.40;81.40;;;;;;5056639;28;20017;-77
2022/11/09 02:00:14;;;;;;;3.80;1.70;;;14.40;81.40;;;;;;5056522;28;20032;-77
2022/11/09 02:02:44;;;;;;;3.35;1.70;;;14.40;81.40;;;;;;5056422;28;20029;-77
2022/11/09 02:05:15;;;;;;;3.72;1.50;;;14.40;81.40;;;;;;5056452;28;20021;-77
2022/11/09 02:07:42;;;;;;;3.75;1.20;;;14.30;81.30;;;;;;5038954;28;20029;-77
2022/11/09 02:10:11;;;;;;;4.68;1.80;;;14.30;81.40;;;;;;5056324;28;20061;-77
2022/11/09 02:12:37;;;;;;;4.50;1.25;;;14.30;81.30;;;;;;5038756;28;20060;-77
2022/11/09 02:15:07;;;;;;;4.03;1.55;;;14.30;81.20;;;;;;5038667;28;20033;-77
2022/11/09 02:17:33;;;;;;;5.70;1.55;;;14.30;81.30;;;;;;5038732;28;20014;-77
2022/11/09 02:19:59;;;;;;;4.72;1.77;;;14.30;81.30;;;;;;5055939;28;20045;-77
2022/11/09 02:22:25;;;;;;;3.25;1.63;;;14.30;81.30;;;;;;5038602;28;20032;-77
2022/11/09 02:24:51;;;;;;;3.45;1.42;;;14.30;81.30;;;;;;5056053;28;20129;-77
2022/11/09 02:27:18;;;;;;;5.10;1.67;;;14.20;81.30;;;;;;5055080;28;20534;-77
2022/11/09 02:29:46;;;;;;;3.88;1.58;;;14.30;81.30;;;;;;5055906;28;20030;-77
2022/11/09 02:32:23;;;;;;;4.25;1.27;;;14.20;81.30;;;;;;5055960;28;20033;-77
2022/11/09 02:34:49;;;;;;;6.10;1.60;;;14.20;81.30;;;;;;5055796;28;20108;-77
2022/11/09 02:37:48;;;;;;;6.43;1.63;;;14.20;81.30;;;;;;5038367;28;20026;-77
2022/11/09 02:40:23;;;;;;;4.80;1.70;;;14.20;81.30;;;;;;5002092;28;20455;-77
2022/11/09 02:42:48;;;;;;;2.88;1.10;;;14.20;81.40;;;;;;5055748;28;20021;-77
2022/11/09 02:45:14;;;;;;;8.45;1.88;;;14.20;81.50;;;;;;5037395;28;20033;-77
2022/11/09 02:47:40;;;;;;;4.50;1.42;;;14.20;81.40;;;;;;5038277;28;20040;-77
2022/11/09 02:50:06;;;;;;;4.43;1.70;;;14.20;81.30;;;;;;5038079;28;20037;-77
2022/11/09 02:52:31;;;;;;;7.90;1.65;;;14.20;81.20;;;;;;5037957;28;20033;-78
2022/11/09 02:54:57;;;;;;;5.43;1.40;;;14.20;81.00;;;;;;5055426;28;20125;-77
2022/11/09 02:57:22;;;;;;;3.10;1.20;;;14.20;80.90;;;;;;5055455;28;20025;-77
2022/11/09 02:59:48;;;;;;;5.18;1.65;;;14.30;80.80;;;;;;5037868;28;20036;-77
2022/11/09 03:02:14;;;;;;;4.45;1.20;;;14.30;80.50;;;;;;5037880;28;20040;-77
2022/11/09 03:04:39;;;;;;;2.45;1.10;;;14.30;80.20;;;;;;5055312;28;20061;-77
2022/11/09 03:07:06;;;;;;;2.85;1.15;;;14.30;80.20;;;;;;5037835;28;20041;-77
2022/11/09 03:09:31;;;;;;;2.55;0.90;;;14.30;80.00;;;;;;5055153;28;20033;-78
2022/11/09 03:11:57;;;;;;;4.43;1.45;;;14.30;80.00;;;;;;5037722;28;20025;-77
2022/11/09 03:14:22;;;;;;;7.03;1.27;;;14.40;79.90;;;;;;5055063;28;20030;-78
2022/11/09 03:16:48;;;;;;;3.60;1.00;;;14.40;79.80;;;;;;5037659;28;20037;-77
2022/11/09 03:19:14;;;;;;;4.20;1.45;;;14.40;79.60;;;;;;5054806;28;20041;-76
2022/11/09 03:21:40;;;;;;;4.18;1.05;;;14.40;79.40;;;;;;5021170;28;20034;-77
2022/11/09 03:24:05;;;;;;;7.30;1.33;;;14.40;79.40;;;;;;5054939;28;20033;-78
2022/11/09 03:26:32;;;;;;;3.45;1.33;;;14.40;79.10;;;;;;5037388;28;20030;-77
2022/11/09 03:28:57;;;;;;;3.22;1.10;;;14.50;79.10;;;;;;5037471;28;20030;-77
2022/11/09 03:31:23;;;;;;;6.45;1.63;;;14.50;79.10;;;;;;5037359;28;20068;-77
2022/11/09 03:33:48;;;;;;;3.35;1.48;;;14.50;79.10;;;;;;5037315;28;20025;-77
2022/11/09 03:36:14;;;;;;;3.58;1.00;;;14.50;78.80;;;;;;5037347;28;20034;-77
2022/11/09 03:38:40;;;;;;;4.57;1.10;;;14.50;78.80;;;;;;5037326;28;20014;-77
2022/11/09 03:41:06;;;;;;;6.25;1.20;;;14.50;78.70;;;;;;5054596;28;20052;-77
2022/11/09 03:43:31;;;;;;;5.25;1.33;;;14.50;78.80;;;;;;5036963;28;20049;-77
2022/11/09 03:45:57;;;;;;;2.58;1.20;;;14.50;78.80;;;;;;5054530;28;20037;-77
2022/11/09 03:48:23;;;;;;;4.75;1.08;;;14.50;78.70;;;;;;5037103;28;20025;-77
2022/11/09 03:50:48;;;;;;;3.47;1.00;;;14.50;78.70;;;;;;5054472;28;20030;-77
2022/11/09 03:53:14;;;;;;;6.15;1.17;;;14.50;79.00;;;;;;5036983;28;20038;-77
2022/11/09 03:55:40;;;;;;;5.93;1.42;;;14.50;79.00;;;;;;5054141;28;20025;-77
2022/11/09 03:58:07;;;;;;;6.55;1.15;;;14.40;79.20;;;;;;5053469;28;20025;-77
2022/11/09 04:00:34;;;;;;;4.55;1.40;;;14.40;79.40;;;;;;5054227;28;20026;-77
2022/11/09 04:03:00;;;;;;;2.40;0.88;;;14.40;79.60;;;;;;5054210;28;20037;-77
2022/11/09 04:05:25;;;;;;;4.57;1.13;;;14.30;79.80;;;;;;5054174;28;20045;-77
2022/11/09 04:07:53;;;;;;;4.47;1.10;;;14.30;79.80;;;;;;5020222;28;20033;-77
2022/11/09 04:10:20;;;;;;;2.55;0.70;;;14.30;80.10;;;;;;5054059;28;20121;-77
2022/11/09 04:12:46;;;;;;;5.25;1.52;;;14.30;81.00;;;;;;5054031;28;20025;-77
2022/11/09 04:15:12;;;;;;;4.85;1.20;;;14.30;80.10;;;;;;5053886;28;20039;-77
2022/11/09 04:17:38;;;;;;;4.47;1.17;;;14.20;80.30;;;;;;5053954;28;20052;-77
2022/11/09 04:20:07;;;;;;;2.78;0.73;;;14.20;80.40;;;;;;5053725;28;20041;-77
2022/11/09 04:22:33;;;;;;;5.47;1.15;;;14.20;81.40;;;;;;5036437;28;20037;-77
2022/11/09 04:24:59;;;;;;;8.68;1.88;;;14.20;80.50;;;;;;5053839;28;20552;-77
2022/11/09 04:27:25;;;;;;;7.47;1.10;;;14.20;80.50;;;;;;5036414;28;20040;-77
2022/11/09 04:29:50;;;;;;;7.68;1.50;;;14.20;80.70;;;;;;5053731;28;20053;-77
2022/11/09 04:32:16;;;;;;;2.95;1.10;;;14.20;81.60;;;;;;5053677;28;20112;-77
2022/11/09 04:34:41;;;;;;;6.00;1.25;;;14.20;80.80;;;;;;5053560;28;20153;-77
2022/11/09 04:37:08;;;;;;;3.28;0.98;;;14.10;80.80;;;;;;5053617;28;20089;-77
2022/11/09 04:39:34;;;;;;;5.25;1.23;;;14.10;80.70;;;;;;5036077;28;20470;-77
2022/11/09 04:42:00;;;;;;;7.95;1.10;;;14.10;80.70;;;;;;5036236;28;20032;-77
2022/11/09 04:44:25;;;;;;;6.85;1.23;;;14.00;80.80;;;;;;5053475;28;20029;-77
2022/11/09 04:46:51;;;;;;;4.65;0.90;;;14.00;81.10;;;;;;5036027;28;20118;-77
2022/11/09 04:49:16;;;;;;;4.55;0.98;;;14.00;81.10;;;;;;5035916;28;20030;-77
2022/11/09 04:51:42;;;;;;;4.47;1.10;;;14.00;81.30;;;;;;5035929;28;20033;-77
2022/11/09 04:54:08;;;;;;;5.07;1.13;;;13.90;81.50;;;;;;5053438;28;20025;-77
2022/11/09 04:56:33;;;;;;;4.07;1.15;;;13.90;81.60;;;;;;5053257;28;20040;-77
2022/11/09 04:58:59;;;;;;;5.80;1.38;;;13.90;81.60;;;;;;5019455;28;20014;-77
2022/11/09 05:01:24;;;;;;;2.60;1.13;;;13.80;81.50;;;;;;5053234;28;20084;-77
2022/11/09 05:03:50;;;;;;;4.85;1.20;;;13.80;82.20;;;;;;5035835;28;20036;-77
2022/11/09 05:06:30;;;;;;;5.38;1.10;;;13.80;82.30;;;;;;5019346;28;20033;-78
2022/11/09 05:09:03;;;;;;;4.10;1.25;;;13.80;82.30;;;;;;5052750;28;20040;-77
2022/11/09 05:11:29;;;;;;;8.23;1.15;;;13.70;82.50;;;;;;5053186;28;20038;-77
2022/11/09 05:13:54;;;;;;;4.40;1.00;;;13.70;82.60;;;;;;5053141;28;20056;-77
2022/11/09 05:16:21;;;;;;;6.35;1.40;;;13.70;82.70;;;;;;5035548;28;20030;-77
2022/11/09 05:18:47;;;;;;;6.50;1.52;;;13.70;83.10;;;;;;5053112;28;20041;-78
2022/11/09 05:21:13;;;;;;;8.45;1.50;;;13.60;83.30;;;;;;5052889;28;20045;-77
2022/11/09 05:26:41;;;;;;;7.85;1.30;;;13.60;83.50;;;;;;4972907;29;20091;-77
2022/11/09 05:29:09;;;;;;;6.03;1.02;;;13.60;83.90;;;;;;5036931;28;20030;-78
2022/11/09 05:31:35;;;;;;;8.90;1.38;;;13.60;84.00;;;;;;5035529;28;20080;-77
2022/11/09 05:34:02;;;;;;;1.65;0.73;;;13.50;83.80;;;;;;5052955;28;20030;-77
2022/11/09 05:36:29;;;;;;;7.32;1.75;;;13.50;84.30;;;;;;5051928;28;20516;-77
2022/11/09 05:38:55;;;;;;;4.90;1.10;;;13.50;84.30;;;;;;5052933;28;20044;-77
2022/11/09 05:41:21;;;;;;;5.43;1.05;;;13.50;84.60;;;;;;5052932;28;20022;-77
2022/11/09 05:43:47;;;;;;;4.28;1.20;;;13.40;84.70;;;;;;5052821;28;20436;-77
2022/11/09 05:46:15;;;;;;;3.28;1.00;;;13.40;84.70;;;;;;5052856;28;20033;-77
2022/11/09 05:48:41;;;;;;;4.28;1.13;;;13.40;84.70;;;;;;5052792;28;20029;-77
2022/11/09 05:51:09;;;;;;;4.03;1.42;;;13.40;84.50;;;;;;5052793;28;20022;-76
2022/11/09 05:53:35;;;;;;;6.60;1.67;;;13.40;84.50;;;;;;5035152;28;20033;-76
2022/11/09 05:56:06;;;;;;;3.65;1.20;;;13.40;84.50;;;;;;5052678;28;20026;-76
2022/11/09 05:58:35;;;;;;;8.32;1.17;;;13.40;84.40;;;;;;5051729;28;20022;-76
2022/11/09 06:01:06;;;;;;;7.80;1.23;;;13.40;84.30;;;;;;5035174;28;20025;-76
2022/11/09 06:03:31;;;;;;;6.55;1.75;;;13.40;84.20;;;;;;5052706;28;20026;-76
2022/11/09 06:06:02;;;;;;;3.42;1.10;;;13.30;84.40;;;;;;5052601;28;20022;-76
2022/11/09 06:08:28;;;;;;;5.72;1.30;;;13.40;85.30;;;;;;5052561;28;20032;-77
2022/11/09 06:11:02;;;;;;;4.82;1.35;;;13.30;84.40;;;;;;5052643;28;20032;-76
2022/11/09 06:13:28;;;;;;;6.60;1.88;;;13.30;84.60;;;;;;5052615;28;20060;-76
2022/11/09 06:15:59;;;;;;;5.88;1.60;;;13.30;85.70;;;;;;5052504;28;20041;-76
2022/11/09 06:18:27;;;;;;;6.03;1.50;;;13.30;84.80;;;;;;5052573;28;20045;-76
2022/11/09 06:20:56;;;;;;;4.18;1.05;;;13.30;85.00;;;;;;5036909;28;20072;-76
2022/11/09 06:23:25;;;;;;;8.20;2.10;;;13.30;84.80;;;;;;5056228;28;20026;-76
2022/11/09 06:26:08;;;;;;;4.50;1.02;;;13.30;84.90;;;;;;5056161;28;20030;-76
2022/11/09 06:28:35;;;;;;;4.40;1.42;;;13.20;84.90;;;;;;5056021;28;20030;-76
2022/11/09 06:31:03;;;;;;;4.43;1.65;;;13.20;84.90;;;;;;5055978;28;20032;-77
2022/11/09 06:33:30;;;;;;;4.80;1.40;;;13.20;84.90;;;;;;5055926;28;20029;-77
2022/11/09 06:35:57;;;;;;;7.53;1.50;;;13.20;85.00;;;;;;5038365;28;20084;-77
2022/11/09 06:38:25;;;;;;;3.67;1.38;;;13.20;85.20;;;;;;5055739;28;20033;-77
2022/11/09 06:40:54;;;;;;;6.47;1.30;;;13.20;85.20;;;;;;5055814;28;20018;-77
2022/11/09 06:43:20;;;;;;;6.88;1.33;;;13.20;85.20;;;;;;5038227;28;20032;-76
2022/11/09 06:45:46;;;;;;;7.28;1.65;;;13.10;85.40;;;;;;5038247;28;20112;-77
2022/11/09 06:48:11;;;;;;;4.32;1.20;;;13.10;85.40;;;;;;5055658;28;20021;-77
2022/11/09 06:50:37;;;;;;;5.22;1.20;;;13.10;85.60;;;;;;5055579;28;20022;-76
2022/11/09 06:53:05;;;;;;;5.55;1.55;;;13.10;85.70;;;;;;5038120;28;20025;-76
2022/11/09 06:55:33;;;;;;;5.00;1.30;;;13.10;85.80;;;;;;5055469;28;20093;-76
2022/11/09 06:57:58;;;;;;;6.10;1.63;;;13.10;85.90;;;;;;5021623;28;20022;-76
2022/11/09 07:00:27;;;;;;;4.05;1.10;;;13.10;86.20;;;;;;5055405;28;20033;-77
2022/11/09 07:03:13;;;;;;;5.57;1.63;;;13.00;86.30;;;;;;5055444;28;20021;-77
2022/11/09 07:05:39;;;;;;;3.95;1.17;;;13.00;86.30;;;;;;5055342;28;20021;-76
2022/11/09 07:08:04;;;;;;;5.82;1.70;;;13.00;86.70;;;;;;5037655;28;20059;-76
2022/11/09 07:10:30;;;;;;;4.05;1.10;;;13.00;86.50;;;;;;5055186;28;20053;-76
2022/11/09 07:12:57;;;;;;;6.45;1.15;;;13.00;87.40;;;;;;5055210;28;20025;-76
2022/11/09 07:15:23;;;;;;;5.55;1.30;;;13.00;86.50;;;;;;5055072;28;20022;-76
2022/11/09 07:17:49;;;;;;;5.38;1.20;;;12.90;86.70;;;;;;5055105;28;20081;-77
2022/11/09 07:20:14;;;;;;;9.23;1.50;;;13.00;86.80;;;;;;5054977;28;20045;-76
2022/11/09 07:22:40;;;;;;;4.90;1.50;;;12.90;86.90;;;;;;5037570;28;20018;-76
2022/11/09 07:25:08;;;;;;;3.63;1.23;;;13.00;86.90;;;;;;5054863;28;20025;-76
2022/11/09 07:27:34;;;;;;;5.20;1.38;;;12.90;86.80;;;;;;5055000;28;20018;-76
2022/11/09 07:30:00;;;;;;;7.25;1.60;;;13.00;86.70;;;;;;5054852;28;20040;-76
2022/11/09 07:32:25;;;;;;;7.80;1.98;;;13.00;86.70;;;;;;5054534;28;20117;-77
2022/11/09 07:34:51;;;;;;;6.75;1.48;;;13.00;86.80;;;;;;5054687;28;20036;-77
2022/11/09 07:37:16;;;;;;;5.90;1.48;;;13.00;86.90;;;;;;5037176;28;20033;-77
2022/11/09 07:39:42;;;;;;;6.47;1.52;;;13.00;86.70;;;;;;5054670;28;20033;-77
2022/11/09 07:42:08;;;;;;;7.70;1.63;;;13.10;86.60;;;;;;5054596;28;20022;-78
2022/11/09 07:44:34;;;;;;;4.82;1.20;;;13.10;86.40;;;;;;5054803;28;20453;-77
2022/11/09 07:46:59;;;;;;;7.97;1.65;;;13.10;86.20;;;;;;5054476;28;20026;-77
2022/11/09 07:49:25;;;;;;;9.70;1.85;;;13.20;86.10;;;;;;5054484;28;20056;-78
2022/11/09 07:51:50;;;;;;;3.00;1.25;;;13.20;86.10;;;;;;5054556;28;20021;-78
2022/11/09 07:54:16;;;;;;;6.22;1.45;;;13.20;86.10;;;;;;5054345;28;20029;-77
2022/11/09 07:56:41;;;;;;;5.38;1.13;;;13.20;85.90;;;;;;5020362;28;20029;-78
2022/11/09 07:59:07;;;;;;;5.18;1.42;;;13.20;85.80;;;;;;5054303;28;20037;-78
2022/11/09 08:01:33;;;;;;;6.97;1.58;;;13.20;85.90;;;;;;5036591;28;20026;-78
2022/11/09 08:04:14;;;;;;;11.98;1.98;;;13.20;85.90;;;;;;5054431;28;20080;-78
2022/11/09 08:06:40;;;;;;;5.25;1.70;;;13.30;85.60;;;;;;4978269;28;20043;-74
2022/11/09 08:09:06;;;;;;;8.90;1.55;;;13.60;85.20;;;;;;4993274;28;20074;-74
2022/11/09 08:11:31;;;;;;;3.75;1.40;;;13.90;84.00;;;;;;4993365;28;20034;-74
2022/11/09 08:13:57;;;;;;;4.30;2.08;;;14.10;83.20;;;;;;4993294;28;20043;-74
2022/11/09 08:16:23;;;;;;;8.38;1.77;;;14.40;81.90;;;;;;4993410;28;20059;-74
2022/11/09 08:18:51;;;;;;;4.15;1.67;;;14.60;80.90;;;;;;4993207;28;20054;-74
2022/11/09 08:21:17;;;;;;;4.35;1.80;;;14.80;80.10;;;;;;4992943;28;20042;-74
2022/11/09 08:23:43;;;;;;;5.28;1.83;;;14.90;79.20;;;;;;4993119;28;20030;-74
2022/11/09 08:26:10;;;;;;;3.63;1.20;;;15.10;79.10;;;;;;4976873;28;20042;-74
2022/11/09 08:28:36;;;;;;;4.03;1.13;;;15.00;78.60;;;;;;4976886;28;20066;-74
2022/11/09 08:31:04;;;;;;;6.72;1.70;;;15.00;78.30;;;;;;4992991;28;20042;-74
2022/11/09 08:33:34;;;;;;;5.18;1.08;;;15.00;78.20;;;;;;4993049;28;20120;-74
2022/11/09 08:35:59;;;;;;;7.13;2.05;;;15.00;78.40;;;;;;4992827;28;20117;-74
2022/11/09 08:38:26;;;;;;;5.80;1.58;;;15.00;78.70;;;;;;4976642;28;20031;-74
2022/11/09 08:40:57;;;;;;;5.57;1.25;;;15.00;78.80;;;;;;4976598;28;20031;-74
2022/11/09 08:43:23;;;;;;;7.67;1.33;;;15.20;77.80;;;;;;4992164;28;20050;-74
2022/11/09 08:45:49;;;;;;;5.35;1.63;;;15.30;77.60;;;;;;4976572;28;20533;-74
2022/11/09 08:48:14;;;;;;;3.25;1.30;;;15.50;77.60;;;;;;4992669;28;20112;-74
2022/11/09 08:50:40;;;;;;;7.70;1.40;;;15.50;75.90;;;;;;4976534;28;20042;-74
2022/11/09 08:53:06;;;;;;;8.30;1.63;;;15.50;76.70;;;;;;4992725;28;20043;-73
2022/11/09 08:55:33;;;;;;;4.95;1.10;;;15.70;75.50;;;;;;4995170;28;20513;-74
2022/11/09 08:58:02;;;;;;;2.83;1.20;;;15.50;76.80;;;;;;5036018;28;20025;-73
2022/11/09 09:00:28;;;;;;;3.88;1.30;;;15.30;76.70;;;;;;5035758;28;20028;-74
2022/11/09 09:02:54;;;;;;;4.63;1.20;;;15.60;76.20;;;;;;5053281;28;20025;-74
2022/11/09 09:05:28;;;;;;;5.07;1.33;;;15.70;76.20;;;;;;5053207;28;20032;-74
2022/11/09 09:07:54;;;;;;;4.35;1.30;;;16.00;74.90;;;;;;5035741;28;20030;-74
2022/11/09 09:10:19;;;;;;;5.68;1.60;;;15.90;74.50;;;;;;5035643;28;20041;-74
2022/11/09 09:12:45;;;;;;;4.85;1.27;;;15.80;74.90;;;;;;5035656;28;20033;-74
2022/11/09 09:15:10;;;;;;;4.28;1.33;;;15.80;75.30;;;;;;5019159;28;20029;-74
2022/11/09 09:17:36;;;;;;;4.60;1.13;;;16.00;75.40;;;;;;5035812;28;20049;-74
2022/11/09 09:20:03;;;;;;;4.68;1.42;;;15.90;74.20;;;;;;5052882;28;20326;-74
2022/11/09 09:22:28;;;;;;;3.78;1.35;;;15.80;75.00;;;;;;5035608;28;20399;-74
2022/11/09 09:24:54;;;;;;;9.25;1.58;;;15.70;74.80;;;;;;5053003;28;20040;-74
2022/11/09 09:27:20;;;;;;;6.78;1.52;;;15.60;74.80;;;;;;5019158;28;20087;-74
2022/11/09 09:29:45;;;;;;;4.35;1.38;;;15.70;74.30;;;;;;5035692;28;20029;-74
2022/11/09 09:32:11;;;;;;;6.88;1.20;;;15.70;74.90;;;;;;5052930;28;20040;-74
2022/11/09 09:34:40;;;;;;;3.40;1.13;;;15.70;74.50;;;;;;5052906;28;20094;-74
2022/11/09 09:37:13;;;;;;;6.53;1.23;;;15.70;74.90;;;;;;5036082;28;20025;-74
2022/11/09 09:39:48;;;;;;;5.68;1.45;;;15.50;74.80;;;;;;5053638;28;20081;-72
2022/11/09 09:42:36;;;;;;;3.70;1.33;;;15.50;75.40;;;;;;5020276;28;20025;-73
2022/11/09 09:45:09;;;;;;;7.88;1.50;;;15.40;75.30;;;;;;5052510;28;20052;-73
2022/11/09 09:47:51;;;;;;;7.40;1.30;;;15.40;74.50;;;;;;5052872;28;20025;-73
2022/11/09 09:50:23;;;;;;;11.55;1.60;;;15.30;75.30;;;;;;5052850;28;20030;-73
2022/11/09 09:52:49;;;;;;;;;;;15.20;75.40;;;;;;5053194;28;20053;-72
2022/11/09 09:55:33;;;;;;;3.00;1.83;;;15.20;75.50;;;;;;5055620;28;19964;-73
2022/11/09 09:58:23;;;;;;;4.60;1.55;;;15.20;76.00;;;;;;5056675;28;20024;-73
2022/11/09 10:00:54;;;;;;;3.33;1.20;;;15.20;75.90;;;;;;5056542;28;20025;-73
2022/11/09 10:03:20;;;;;;;4.38;1.48;;;15.30;75.20;;;;;;5039167;28;20029;-73
2022/11/09 10:05:55;;;;;;;6.57;1.67;;;15.20;75.50;;;;;;5038870;28;20029;-73
2022/11/09 10:08:39;;;;;;;6.53;2.10;;;15.20;75.90;;;;;;5056563;28;20025;-73
2022/11/09 10:17:36;;;;;;;8.15;1.98;;;15.20;74.30;;;;;;5056484;28;19916;-72
2022/11/09 10:20:30;;;;;;;7.70;1.98;;;15.20;75.40;;;;;;5055962;28;20029;-73
2022/11/09 10:23:14;;;;;;;4.03;1.75;;;15.30;74.60;;;;;;5056265;28;20017;-73
2022/11/09 10:25:44;;;;;;;6.30;1.48;;;15.20;74.10;;;;;;5038601;28;20033;-73
2022/11/09 10:28:14;;;;;;;4.78;1.60;;;15.20;74.80;;;;;;5056033;28;20052;-73
2022/11/09 10:30:40;;;;;;;2.42;1.25;;;15.20;75.20;;;;;;5038744;28;20037;-73
2022/11/09 10:33:08;;;;;;;7.15;1.27;;;15.20;73.80;;;;;;5055968;28;20547;-73
2022/11/09 10:35:36;;;;;;;6.05;1.30;;;15.30;74.30;;;;;;5038272;28;20033;-73
2022/11/09 10:38:03;;;;;;;9.05;1.80;;;15.30;74.00;;;;;;5055845;28;20021;-73
2022/11/09 10:40:41;;;;;;;5.50;1.23;;;15.30;74.30;;;;;;5055770;28;20021;-73
2022/11/09 10:43:11;;;;;;;7.53;1.20;;;15.30;74.10;;;;;;5055933;28;20125;-73
2022/11/09 10:45:43;;;;;;;6.43;1.13;;;15.40;73.40;;;;;;5055706;28;20048;-73
2022/11/09 10:48:13;;;;;;;4.72;1.45;;;15.40;73.10;;;;;;5055898;28;20025;-72
2022/11/09 10:51:07;;;;;;;6.85;1.33;;;15.50;72.90;;;;;;5055822;28;20053;-73
2022/11/09 10:56:48;;;;;;;5.18;1.55;;;15.60;72.90;;;;;;5054953;28;20041;-73
2022/11/09 10:59:48;;;;;;;5.10;1.10;;;15.60;73.10;;;;;;5055013;28;20018;-73
2022/11/09 11:02:41;;;;;;;5.50;0.90;;;15.70;72.20;;;;;;5053834;28;20056;-74
2022/11/09 11:05:06;;;;;;;2.75;0.70;;;15.70;70.90;;;;;;5045122;28;20087;-73
2022/11/09 11:07:34;;;;;;;7.53;0.80;;;15.70;71.00;;;;;;5054827;28;20037;-73
2022/11/09 11:10:15;;;;;;;5.80;1.00;;;15.60;71.10;;;;;;5037763;28;20026;-73
2022/11/09 11:13:06;;;;;;;5.25;1.58;;;15.60;70.00;;;;;;5055227;28;20085;-73
2022/11/09 11:15:37;;;;;;;6.20;1.38;;;15.60;70.60;;;;;;5037922;28;20064;-73
2022/11/09 11:18:30;;;;;;;3.85;1.13;;;15.60;71.20;;;;;;5055165;28;20029;-73
2022/11/09 11:21:13;;;;;;;6.53;1.17;;;15.60;71.60;;;;;;5049936;28;20097;-74
2022/11/09 11:23:39;;;;;;;7.53;1.30;;;15.50;70.90;;;;;;5055084;28;20076;-73
2022/11/09 11:26:23;;;;;;;4.22;0.93;;;15.50;71.50;;;;;;5054937;28;20361;-73
2022/11/09 11:28:53;;;;;;;6.07;1.38;;;15.50;71.40;;;;;;5037501;28;20080;-73
2022/11/09 11:31:20;;;;;;;7.85;1.35;;;15.30;71.90;;;;;;5055035;28;20013;-73
2022/11/09 11:33:46;;;;;;;4.35;0.93;;;15.30;71.30;;;;;;5037510;28;20029;-73
2022/11/09 11:36:14;;;;;;;4.57;1.20;;;15.40;70.90;;;;;;5020734;28;20037;-73
2022/11/09 11:39:09;;;;;;;6.03;1.15;;;15.40;72.00;;;;;;5037211;28;20097;-73
2022/11/09 11:41:53;;;;;;;3.65;0.73;;;15.60;70.60;;;;;;5054809;28;20053;-73
2022/11/09 11:44:32;;;;;;;2.45;1.05;;;15.70;70.60;;;;;;5054673;28;20081;-73
2022/11/09 11:47:08;;;;;;;3.70;0.90;;;15.60;70.50;;;;;;5054599;28;20026;-73
2022/11/09 11:50:04;;;;;;;5.38;1.13;;;15.60;70.50;;;;;;5054547;28;20018;-73
2022/11/09 11:52:48;;;;;;;4.57;1.30;;;15.60;70.60;;;;;;5054482;28;20053;-73
2022/11/09 11:55:32;;;;;;;3.50;0.88;;;15.40;70.60;;;;;;5054371;28;20029;-73
2022/11/09 11:58:15;;;;;;;3.90;1.00;;;15.40;71.80;;;;;;5054553;28;20029;-73
2022/11/09 12:00:56;;;;;;;5.03;1.08;;;15.30;70.80;;;;;;5054290;28;20029;-73
2022/11/09 12:03:51;;;;;;;5.30;1.10;;;15.30;71.10;;;;;;5054446;28;20030;-73
2022/11/09 12:06:19;;;;;;;6.47;1.15;;;15.30;71.10;;;;;;5054247;28;20029;-73
2022/11/09 12:09:09;;;;;;;4.22;1.27;;;15.30;71.30;;;;;;5054080;28;20037;-73
2022/11/09 12:11:50;;;;;;;5.72;1.20;;;15.20;71.90;;;;;;5054266;28;20059;-73
2022/11/09 12:14:25;;;;;;;6.65;1.25;;;15.20;71.90;;;;;;5054191;28;20025;-73
2022/11/09 12:17:16;;;;;;;4.95;1.13;;;15.20;72.40;;;;;;5053657;28;20029;-73
2022/11/09 12:20:01;;;;;;;2.60;0.95;;;15.20;72.70;;;;;;5053891;28;20030;-73
2022/11/09 12:22:39;;;;;;;5.60;1.23;;;15.20;72.00;;;;;;5054032;28;20033;-73
2022/11/09 12:25:15;;;;;;;4.85;1.13;;;15.20;71.90;;;;;;5036513;28;20025;-73
2022/11/09 12:27:55;;;;;;;4.53;0.95;;;15.20;72.10;;;;;;5053852;28;20029;-73
2022/11/09 12:30:24;;;;;;;7.20;1.40;;;15.30;71.50;;;;;;5036279;28;20113;-73
2022/11/09 12:33:02;;;;;;;4.10;1.02;;;15.40;71.90;;;;;;5036410;28;20086;-74
2022/11/09 12:35:44;;;;;;;3.72;0.98;;;15.50;71.30;;;;;;5053665;28;20037;-73
2022/11/09 12:38:17;;;;;;;3.47;0.80;;;15.70;70.60;;;;;;5053831;28;20022;-73
2022/11/09 12:40:47;;;;;;;;;;;15.70;70.60;;;;;;5054039;28;20030;-73
2022/11/09 12:43:33;;;;;;;2.13;0.85;;;15.80;68.80;;;;;;5053673;28;19981;-73
2022/11/09 12:46:02;;;;;;;3.95;0.82;;;15.80;68.10;;;;;;5053513;28;20017;-73
2022/11/09 12:48:31;;;;;;;2.78;0.73;;;15.90;69.40;;;;;;5053452;28;20017;-73
2022/11/09 12:50:59;;;;;;;2.22;0.88;;;15.80;67.80;;;;;;5053352;28;20056;-73
2022/11/09 12:53:29;;;;;;;3.53;0.88;;;15.70;68.10;;;;;;5035837;28;20045;-73
2022/11/09 12:56:21;;;;;;;4.68;1.02;;;15.60;68.60;;;;;;5053449;28;20014;-73
2022/11/09 12:58:47;;;;;;;3.95;1.20;;;15.50;68.40;;;;;;5052703;28;20030;-73
2022/11/09 13:01:33;;;;;;;2.58;0.88;;;15.40;69.30;;;;;;5053307;28;20026;-73
2022/11/09 13:04:01;;;;;;;4.72;0.80;;;15.40;68.60;;;;;;5035779;28;20024;-73
2022/11/09 13:06:29;;;;;;;3.83;1.10;;;15.40;69.20;;;;;;5053253;28;20045;-73
2022/11/09 13:09:01;;;;;;;4.93;1.00;;;15.50;69.40;;;;;;5053125;28;20026;-73
2022/11/09 13:11:35;;;;;;;3.08;1.25;;;15.50;68.80;;;;;;5053244;28;20029;-73
2022/11/09 13:14:35;;;;;;;6.18;0.93;;;15.50;68.70;;;;;;5053120;28;20049;-73